Time;durP1;ratioP1;P1;durP2;ratioP2;P2;SDS_P1;SDS_P2;PMS_P1;PMS_P2;Temp;Humidity;BMP_temperature;BMP_pressure;BME280_temperature;BME280_humidity;BME280_pressure;Samples;Min_cycle;Max_cycle;Signal;HPM_P1;HPM_P2
2021/06/13 00:00:58;;;;;;;6.60;5.88;;;;;;;-139.48;100.00;61774.03;5055371;28;20053;-72
2021/06/13 00:03:42;;;;;;;9.68;6.57;;;;;;;-139.48;100.00;61774.03;5055363;28;20091;-72
2021/06/13 00:06:26;;;;;;;8.75;6.38;;;;;;;-139.48;100.00;61774.03;5055336;28;20051;-72
2021/06/13 00:09:09;;;;;;;10.73;6.30;;;;;;;-139.48;100.00;61774.03;5054994;28;20040;-72
2021/06/13 00:11:53;;;;;;;10.02;6.13;;;;;;;-139.48;100.00;61774.03;5055194;28;20075;-72
2021/06/13 00:14:38;;;;;;;11.13;6.50;;;;;;;-139.48;100.00;61774.03;5055463;28;20044;-72
2021/06/13 00:17:22;;;;;;;8.88;5.78;;;;;;;-139.48;100.00;61774.03;5069124;28;20402;-73
2021/06/13 00:20:12;;;;;;;9.25;6.72;;;;;;;-139.48;100.00;61774.03;5055030;28;20059;-72
2021/06/13 00:22:56;;;;;;;10.02;6.18;;;;;;;-139.48;100.00;61774.03;5069189;28;20051;-72
2021/06/13 00:25:40;;;;;;;9.15;7.00;;;;;;;-139.48;100.00;61774.03;5055297;28;20083;-72
2021/06/13 00:28:24;;;;;;;12.73;6.10;;;;;;;-139.48;100.00;61774.03;5054878;28;20047;-72
2021/06/13 00:31:07;;;;;;;10.85;6.43;;;;;;;-139.48;100.00;61774.03;5055522;28;20060;-72
2021/06/13 00:33:52;;;;;;;8.40;6.20;;;;;;;-139.48;100.00;61774.03;5054779;28;20056;-72
2021/06/13 00:36:36;;;;;;;10.65;6.10;;;;;;;-139.48;100.00;61774.03;5054799;28;20071;-72
2021/06/13 00:39:20;;;;;;;8.82;6.25;;;;;;;-139.48;100.00;61774.03;5054722;28;20098;-73
2021/06/13 00:42:04;;;;;;;8.98;5.95;;;;;;;-139.48;100.00;61774.03;5054707;28;20470;-72
2021/06/13 00:44:48;;;;;;;9.20;6.05;;;;;;;-139.48;100.00;61774.03;5054634;28;20044;-71
2021/06/13 00:47:32;;;;;;;9.68;6.07;;;;;;;-139.48;100.00;61774.03;5068718;28;20178;-72
2021/06/13 00:50:20;;;;;;;9.23;6.22;;;;;;;-139.48;100.00;61774.03;5054477;28;20468;-72
2021/06/13 00:53:05;;;;;;;9.50;6.10;;;;;;;-139.48;100.00;61774.03;5054152;28;20048;-73
2021/06/13 00:55:49;;;;;;;9.48;6.22;;;;;;;-139.48;100.00;61774.03;5055192;28;20052;-72
2021/06/13 00:58:33;;;;;;;6.82;6.07;;;;;;;-139.48;100.00;61774.03;5054702;28;20047;-72
2021/06/13 01:01:17;;;;;;;10.90;6.88;;;;;;;-139.48;100.00;61774.03;5054068;28;20091;-71
2021/06/13 01:04:01;;;;;;;8.20;5.90;;;;;;;-139.48;100.00;61774.03;5068467;28;20071;-72
2021/06/13 01:07:06;;;;;;;9.10;5.80;;;;;;;-139.48;100.00;61774.03;5053896;28;20130;-72
2021/06/13 01:09:58;;;;;;;11.55;5.75;;;;;;;-139.48;100.00;61774.03;5054076;28;20055;-72
2021/06/13 01:12:47;;;;;;;7.22;5.68;;;;;;;-139.48;100.00;61774.03;5054011;28;20132;-72
2021/06/13 01:15:41;;;;;;;10.77;5.65;;;;;;;-139.48;100.00;61774.03;5054076;28;20051;-72
2021/06/13 01:18:46;;;;;;;9.80;5.93;;;;;;;-139.48;100.00;61774.03;5054140;28;20040;-72
2021/06/13 01:21:44;;;;;;;10.77;5.70;;;;;;;-139.48;100.00;61774.03;5068169;28;20048;-72
2021/06/13 01:24:43;;;;;;;10.05;6.15;;;;;;;-139.48;100.00;61774.03;5054196;28;20106;-72
2021/06/13 01:27:50;;;;;;;11.15;6.00;;;;;;;-139.48;100.00;61774.03;5054757;28;20036;-72
2021/06/13 01:30:35;;;;;;;8.40;5.95;;;;;;;-139.48;100.00;61774.03;5053388;28;20422;-72
2021/06/13 01:33:20;;;;;;;8.23;5.75;;;;;;;-139.48;100.00;61774.03;5053674;28;20048;-72
2021/06/13 01:36:05;;;;;;;9.13;6.57;;;;;;;-139.48;100.00;61774.03;5053670;28;20501;-72
2021/06/13 01:38:49;;;;;;;8.02;5.63;;;;;;;-139.48;100.00;61774.03;5054394;28;20120;-72
2021/06/13 01:41:34;;;;;;;9.13;6.18;;;;;;;-139.48;100.00;61774.03;5053499;28;20397;-72
2021/06/13 01:44:19;;;;;;;10.50;6.30;;;;;;;-139.48;100.00;61774.03;5053527;28;20052;-72
2021/06/13 01:47:04;;;;;;;8.35;6.20;;;;;;;-139.48;100.00;61774.03;5053099;28;20167;-72
2021/06/13 01:49:49;;;;;;;9.35;6.05;;;;;;;-139.48;100.00;61774.03;5053082;28;20464;-72
2021/06/13 01:52:33;;;;;;;;;;;;;;;-139.48;100.00;61774.03;5053746;28;20110;-72
2021/06/13 01:55:18;;;;;;;;;;;;;;;-139.48;100.00;61774.03;5067902;28;19920;-72
2021/06/13 01:58:02;;;;;;;;;;;;;;;-139.48;100.00;61774.03;5054493;28;20464;-72
2021/06/13 02:00:48;;;;;;;11.13;6.27;;;;;;;-139.48;100.00;61774.03;5067163;28;20435;-72
2021/06/13 02:03:35;;;;;;;9.27;5.90;;;;;;;-139.48;100.00;61774.03;5066957;28;20051;-72
2021/06/13 02:06:23;;;;;;;11.32;6.40;;;;;;;-139.48;100.00;61774.03;5053339;28;20047;-72
2021/06/13 02:09:07;;;;;;;8.88;6.35;;;;;;;-139.48;100.00;61774.03;5053072;28;20056;-72
2021/06/13 02:11:54;;;;;;;10.25;5.80;;;;;;;-139.48;100.00;61774.03;5052646;28;20051;-72
2021/06/13 02:14:42;;;;;;;11.73;6.45;;;;;;;-139.48;100.00;61774.03;5067044;28;20047;-72
2021/06/13 02:17:27;;;;;;;8.75;6.13;;;;;;;-139.48;100.00;61774.03;5066741;28;20102;-72
2021/06/13 02:20:11;;;;;;;;;;;;;;;-139.48;100.00;61774.03;5052914;28;20136;-72
2021/06/13 02:22:55;;;;;;;12.02;5.90;;;;;;;-139.48;100.00;61774.03;5066954;28;20420;-72
2021/06/13 02:25:39;;;;;;;8.05;5.70;;;;;;;-139.48;100.00;61774.03;5038730;28;20182;-72
2021/06/13 02:28:24;;;;;;;9.02;5.13;;;;;;;-139.48;100.00;61774.03;5053555;28;20044;-72
2021/06/13 02:31:08;;;;;;;7.22;5.53;;;;;;;-139.48;100.00;61774.03;5052272;28;20121;-72
2021/06/13 02:33:53;;;;;;;7.47;5.40;;;;;;;-139.48;100.00;61774.03;5052673;28;20094;-72
2021/06/13 02:36:38;;;;;;;11.35;6.22;;;;;;;-139.48;100.00;61774.03;5052424;28;20055;-72
2021/06/13 02:39:22;;;;;;;10.45;5.75;;;;;;;-139.48;100.00;61774.03;5052663;28;20477;-72
2021/06/13 02:42:07;;;;;;;7.95;5.78;;;;;;;-139.48;100.00;61774.03;5053502;28;20043;-72
2021/06/13 02:44:51;;;;;;;9.38;6.22;;;;;;;-139.48;100.00;61774.03;5053069;28;20543;-72
2021/06/13 02:47:37;;;;;;;11.20;6.05;;;;;;;-139.48;100.00;61774.03;5052587;28;20139;-72
2021/06/13 02:50:22;;;;;;;9.75;6.00;;;;;;;-139.48;100.00;61774.03;5066379;28;20107;-72
2021/06/13 02:53:42;;;;;;;10.35;6.13;;;;;;;-139.48;100.00;61774.03;5052497;28;20047;-72
2021/06/13 02:56:35;;;;;;;11.77;5.88;;;;;;;-139.48;100.00;61774.03;5064734;28;20051;-72
2021/06/13 02:59:43;;;;;;;8.88;5.68;;;;;;;-139.48;100.00;61774.03;5053311;28;20040;-72
2021/06/13 03:02:29;;;;;;;8.40;6.10;;;;;;;-139.48;100.00;61774.03;5066337;28;20044;-72
2021/06/13 03:05:13;;;;;;;9.63;5.90;;;;;;;-139.48;100.00;61774.03;5051991;28;20212;-74
2021/06/13 03:07:58;;;;;;;12.88;6.53;;;;;;;-139.48;100.00;61774.03;5052414;28;20102;-74
2021/06/13 03:10:42;;;;;;;10.57;5.63;;;;;;;-139.48;100.00;61774.03;5056351;28;20064;-69
2021/06/13 03:13:26;;;;;;;6.80;5.55;;;;;;;-139.48;100.00;61774.03;5056082;28;20056;-74
2021/06/13 03:16:11;;;;;;;11.15;5.90;;;;;;;-139.48;100.00;61774.03;5056353;28;20094;-74
2021/06/13 03:18:55;;;;;;;8.40;6.38;;;;;;;-139.48;100.00;61774.03;5057006;28;20068;-74
2021/06/13 03:21:40;;;;;;;9.70;6.28;;;;;;;-139.48;100.00;61774.03;5056151;28;20131;-74
2021/06/13 03:24:24;;;;;;;15.30;6.88;;;;;;;-139.48;100.00;61774.03;5056473;28;20463;-74
2021/06/13 03:27:09;;;;;;;10.80;5.57;;;;;;;-139.48;100.00;61774.03;5055994;28;20062;-74
2021/06/13 03:29:53;;;;;;;10.88;6.40;;;;;;;-139.48;100.00;61774.03;5069746;28;20531;-75
2021/06/13 03:32:37;;;;;;;6.65;5.57;;;;;;;-139.48;100.00;61774.03;5055936;28;20043;-73
2021/06/13 03:35:22;;;;;;;9.02;5.90;;;;;;;-139.48;100.00;61774.03;5056374;28;20444;-73
2021/06/13 03:38:06;;;;;;;10.52;5.57;;;;;;;-139.48;100.00;61774.03;5070119;28;20048;-73
2021/06/13 03:40:50;;;;;;;11.90;6.70;;;;;;;-139.48;100.00;61774.03;5055914;28;20048;-73
2021/06/13 03:43:34;;;;;;;8.32;5.85;;;;;;;-139.48;100.00;61774.03;5055597;28;20055;-73
2021/06/13 03:46:19;;;;;;;10.65;6.85;;;;;;;-139.48;100.00;61774.03;5055570;28;20052;-73
2021/06/13 03:49:05;;;;;;;8.15;6.45;;;;;;;-139.48;100.00;61774.03;5055877;28;20470;-75
2021/06/13 03:51:51;;;;;;;7.25;5.97;;;;;;;-139.48;100.00;61774.03;5055887;28;20525;-73
2021/06/13 03:54:36;;;;;;;8.38;5.97;;;;;;;-139.48;100.00;61774.03;5055543;28;20052;-73
2021/06/13 03:57:21;;;;;;;7.68;6.05;;;;;;;-139.48;100.00;61774.03;5055618;28;20134;-73
2021/06/13 04:00:06;;;;;;;9.18;5.65;;;;;;;-139.48;100.00;61774.03;5055225;28;20052;-73
2021/06/13 04:02:49;;;;;;;11.18;5.97;;;;;;;-139.48;100.00;61774.03;5055500;28;20079;-73
2021/06/13 04:05:33;;;;;;;8.68;5.47;;;;;;;-139.48;100.00;61774.03;5056424;28;20493;-73
2021/06/13 04:08:19;;;;;;;7.78;5.68;;;;;;;-139.48;100.00;61774.03;5055483;28;20067;-72
2021/06/13 04:11:04;;;;;;;10.40;5.97;;;;;;;-139.48;100.00;61774.03;5055117;28;20103;-73
2021/06/13 04:13:48;;;;;;;10.23;6.05;;;;;;;-139.48;100.00;61774.03;5055321;28;20068;-73
2021/06/13 04:16:33;;;;;;;11.60;6.50;;;;;;;-139.48;100.00;61774.03;5055239;28;20043;-73
2021/06/13 04:19:17;;;;;;;9.68;5.47;;;;;;;-139.48;100.00;61774.03;5054717;28;20493;-71
2021/06/13 04:22:01;;;;;;;9.75;5.80;;;;;;;-139.48;100.00;61774.03;5055022;28;20067;-73
2021/06/13 04:24:50;;;;;;;9.30;6.40;;;;;;;-139.48;100.00;61774.03;5055355;28;20115;-73
2021/06/13 04:27:35;;;;;;;9.40;5.78;;;;;;;-139.48;100.00;61774.03;5055181;28;20079;-73
2021/06/13 04:33:10;;;;;;;10.13;6.50;;;;;;;-139.48;100.00;61774.03;5015142;28;20180;-74
2021/06/13 04:35:54;;;;;;;8.63;5.43;;;;;;;-139.48;100.00;61774.03;4987558;28;20064;-73
2021/06/13 04:38:38;;;;;;;10.05;5.78;;;;;;;-139.48;100.00;61774.03;5015918;28;20506;-73
2021/06/13 04:41:22;;;;;;;10.43;5.90;;;;;;;-139.48;100.00;61774.03;4995423;28;20073;-73
2021/06/13 04:44:06;;;;;;;8.10;5.47;;;;;;;-139.48;100.00;61774.03;4981593;28;20482;-73
2021/06/13 04:46:51;;;;;;;9.35;5.88;;;;;;;-139.48;100.00;61774.03;4981755;28;20065;-74
2021/06/13 04:49:34;;;;;;;10.77;5.88;;;;;;;-139.48;100.00;61774.03;4995594;28;20115;-73
2021/06/13 04:52:21;;;;;;;9.02;5.00;;;;;;;-139.48;100.00;61774.03;4981727;28;20052;-73
2021/06/13 04:55:29;;;;;;;11.15;5.20;;;;;;;-139.48;100.00;61774.03;4968012;28;20451;-73
2021/06/13 04:58:23;;;;;;;11.20;5.10;;;;;;;-139.48;100.00;61774.03;4956041;28;20049;-73
2021/06/13 05:01:07;;;;;;;;;;;;;;;-139.48;100.00;61774.03;4981202;28;20506;-73
2021/06/13 05:03:52;;;;;;;7.47;4.20;;;;;;;-139.48;100.00;61774.03;4967312;28;19976;-73
2021/06/13 05:06:41;;;;;;;8.15;4.60;;;;;;;-139.48;100.00;61774.03;4967184;28;20056;-73
2021/06/13 05:09:25;;;;;;;8.00;4.50;;;;;;;-139.48;100.00;61774.03;4980722;28;20038;-73
2021/06/13 05:12:09;;;;;;;9.05;4.07;;;;;;;-139.48;100.00;61774.03;4980575;28;20142;-73
2021/06/13 05:14:53;;;;;;;11.48;4.75;;;;;;;-139.48;100.00;61774.03;4994485;28;20112;-73
2021/06/13 05:17:37;;;;;;;9.77;5.68;;;;;;;-139.48;100.00;61774.03;4980180;28;20452;-73
2021/06/13 05:20:21;;;;;;;7.40;4.40;;;;;;;-139.48;100.00;61774.03;4980232;28;20138;-73
2021/06/13 05:23:06;;;;;;;7.80;4.32;;;;;;;-139.48;100.00;61774.03;4993995;28;20081;-73
2021/06/13 05:25:52;;;;;;;6.40;4.20;;;;;;;-139.48;100.00;61774.03;4980484;28;20506;-73
2021/06/13 05:28:36;;;;;;;7.57;4.45;;;;;;;-139.48;100.00;61774.03;4980432;28;20078;-74
2021/06/13 05:31:20;;;;;;;9.63;4.90;;;;;;;-139.48;100.00;61774.03;4979080;28;20088;-73
2021/06/13 05:34:04;;;;;;;12.43;4.43;;;;;;;-139.48;100.00;61774.03;4980083;28;20052;-73
2021/06/13 05:36:48;;;;;;;7.85;5.10;;;;;;;-139.48;100.00;61774.03;4981336;28;20048;-73
2021/06/13 05:39:32;;;;;;;12.07;5.05;;;;;;;-139.48;100.00;61774.03;4993703;28;20049;-73
2021/06/13 05:42:16;;;;;;;10.73;4.90;;;;;;;-139.48;100.00;61774.03;4980044;28;20115;-72
2021/06/13 05:45:00;;;;;;;7.35;4.50;;;;;;;-139.48;100.00;61774.03;4995043;28;20049;-74
2021/06/13 05:47:45;;;;;;;8.45;4.90;;;;;;;-139.48;100.00;61774.03;4979812;28;20046;-73
2021/06/13 05:50:30;;;;;;;7.20;4.70;;;;;;;-139.48;100.00;61774.03;4979701;28;20519;-74
2021/06/13 05:53:15;;;;;;;7.72;4.63;;;;;;;-139.48;100.00;61774.03;4966141;28;20477;-73
2021/06/13 05:55:58;;;;;;;11.32;4.57;;;;;;;-139.48;100.00;61774.03;4979726;28;20420;-73
2021/06/13 05:58:42;;;;;;;8.70;4.28;;;;;;;-139.48;100.00;61774.03;4966287;28;20356;-72
2021/06/13 06:01:26;;;;;;;12.25;4.15;;;;;;;-139.48;100.00;61774.03;4979570;28;20144;-73
2021/06/13 06:04:10;;;;;;;8.95;4.60;;;;;;;-139.48;100.00;61774.03;4979685;28;20533;-73
2021/06/13 06:06:54;;;;;;;8.80;4.18;;;;;;;-139.48;100.00;61774.03;4979490;28;20085;-73
2021/06/13 06:09:38;;;;;;;9.43;4.43;;;;;;;-139.48;100.00;61774.03;4979569;28;20061;-71
2021/06/13 06:12:22;;;;;;;9.45;4.07;;;;;;;-139.48;100.00;61774.03;4979188;28;20506;-73
2021/06/13 06:15:07;;;;;;;13.52;4.97;;;;;;;-139.48;100.00;61774.03;4979590;28;20522;-72
2021/06/13 06:17:51;;;;;;;14.85;5.45;;;;;;;-139.48;100.00;61774.03;4979062;28;20061;-72
2021/06/13 06:20:36;;;;;;;11.00;4.75;;;;;;;-139.48;100.00;61774.03;4979604;28;20156;-73
2021/06/13 06:23:19;;;;;;;10.00;5.30;;;;;;;-139.48;100.00;61774.03;4949028;28;20360;-71
2021/06/13 06:26:03;;;;;;;9.40;5.47;;;;;;;-139.48;100.00;61774.03;4979322;28;20101;-72
2021/06/13 06:28:47;;;;;;;8.75;5.18;;;;;;;-139.48;100.00;61774.03;4993601;28;20140;-72
2021/06/13 06:31:32;;;;;;;7.88;5.13;;;;;;;-139.48;100.00;61774.03;4979383;28;20526;-73
2021/06/13 06:34:16;;;;;;;9.98;5.43;;;;;;;-139.48;100.00;61774.03;4979104;28;20048;-74
2021/06/13 06:37:01;;;;;;;11.48;5.78;;;;;;;-139.48;100.00;61774.03;4979445;28;20062;-74
2021/06/13 06:39:44;;;;;;;14.30;5.93;;;;;;;-139.48;100.00;61774.03;4979361;28;20053;-74
2021/06/13 06:42:29;;;;;;;;;;;;;;;-139.48;100.00;61774.03;4980051;28;20053;-73
2021/06/13 06:45:13;;;;;;;11.30;4.97;;;;;;;-139.48;100.00;61774.03;4994077;28;19937;-74
2021/06/13 06:47:57;;;;;;;8.52;5.15;;;;;;;-139.48;100.00;61774.03;4979628;28;20494;-74
2021/06/13 06:50:41;;;;;;;14.88;6.00;;;;;;;-139.48;100.00;61774.03;4994204;28;20514;-74
2021/06/13 06:53:25;;;;;;;11.23;6.07;;;;;;;-139.48;100.00;61774.03;4979824;28;20101;-75
2021/06/13 06:56:09;;;;;;;13.98;6.82;;;;;;;-139.48;100.00;61774.03;4979896;28;20061;-74
2021/06/13 06:58:55;;;;;;;15.05;6.40;;;;;;;-139.48;100.00;61774.03;4979607;28;20193;-74
2021/06/13 07:01:39;;;;;;;10.27;5.90;;;;;;;-139.48;100.00;61774.03;4979412;28;20092;-73
2021/06/13 07:04:23;;;;;;;14.68;6.20;;;;;;;-139.48;100.00;61774.03;4992721;28;20507;-74
2021/06/13 07:07:07;;;;;;;10.50;5.75;;;;;;;-139.48;100.00;61774.03;4979379;28;20125;-74
2021/06/13 07:09:51;;;;;;;14.38;5.55;;;;;;;-139.48;100.00;61774.03;4979288;28;20057;-73
2021/06/13 07:12:36;;;;;;;13.77;6.13;;;;;;;-139.48;100.00;61774.03;4979267;28;20050;-73
2021/06/13 07:15:20;;;;;;;13.95;6.40;;;;;;;-139.48;100.00;61774.03;4965666;28;20057;-74
2021/06/13 07:18:04;;;;;;;10.20;5.88;;;;;;;-139.48;100.00;61774.03;4965342;28;20057;-74
2021/06/13 07:20:47;;;;;;;11.35;5.50;;;;;;;-139.48;100.00;61774.03;4993300;28;20052;-74
2021/06/13 07:23:32;;;;;;;10.13;5.82;;;;;;;-139.48;100.00;61774.03;4979616;28;20474;-73
2021/06/13 07:26:16;;;;;;;10.75;6.03;;;;;;;-139.48;100.00;61774.03;4993955;28;20068;-73
2021/06/13 07:29:00;;;;;;;10.05;5.32;;;;;;;-139.48;100.00;61774.03;4993815;28;20049;-72
2021/06/13 07:31:44;;;;;;;9.20;5.20;;;;;;;-139.48;100.00;61774.03;4992460;28;20061;-72
2021/06/13 07:34:28;;;;;;;12.50;5.72;;;;;;;-139.48;100.00;61774.03;4979255;28;20057;-72
2021/06/13 07:37:13;;;;;;;9.55;5.32;;;;;;;-139.48;100.00;61774.03;4979630;28;20180;-72
2021/06/13 07:39:57;;;;;;;10.18;5.32;;;;;;;-139.48;100.00;61774.03;4979368;28;20096;-72
2021/06/13 07:42:42;;;;;;;10.45;5.30;;;;;;;-139.48;100.00;61774.03;4993724;28;20089;-72
2021/06/13 07:45:26;;;;;;;7.93;4.82;;;;;;;-139.48;100.00;61774.03;4979313;28;20104;-72
2021/06/13 07:48:12;;;;;;;10.90;5.05;;;;;;;-139.48;100.00;61774.03;4965926;28;20049;-72
2021/06/13 07:50:55;;;;;;;10.00;4.95;;;;;;;-139.48;100.00;61774.03;4979218;28;20053;-72
2021/06/13 07:53:43;;;;;;;9.13;4.82;;;;;;;-139.48;100.00;61774.03;4978896;28;20142;-72
2021/06/13 07:56:27;;;;;;;9.50;5.20;;;;;;;-139.48;100.00;61774.03;4983113;28;20057;-72
2021/06/13 07:59:11;;;;;;;9.77;5.50;;;;;;;-139.48;100.00;61774.03;4996813;28;20045;-72
2021/06/13 08:01:56;;;;;;;6.25;4.40;;;;;;;-139.48;100.00;61774.03;4969185;28;20105;-72
2021/06/13 08:04:44;;;;;;;7.07;4.43;;;;;;;-139.48;100.00;61774.03;4982852;28;20046;-72
2021/06/13 08:07:28;;;;;;;10.55;5.03;;;;;;;-139.48;100.00;61774.03;4997540;28;20045;-72
2021/06/13 08:10:12;;;;;;;7.82;4.00;;;;;;;-139.48;100.00;61774.03;4982678;28;20116;-72
2021/06/13 08:12:57;;;;;;;7.63;4.60;;;;;;;-139.48;100.00;61774.03;4982408;28;20045;-72
2021/06/13 08:15:41;;;;;;;10.73;4.63;;;;;;;-139.48;100.00;61774.03;4982266;28;20490;-73
2021/06/13 08:18:25;;;;;;;10.88;4.97;;;;;;;-139.48;100.00;61774.03;4982353;28;20478;-73
2021/06/13 08:21:09;;;;;;;13.07;4.90;;;;;;;-139.48;100.00;61774.03;4982334;28;20080;-73
2021/06/13 08:23:53;;;;;;;12.45;4.30;;;;;;;-139.48;100.00;61774.03;4982179;28;20101;-72
2021/06/13 08:26:37;;;;;;;7.88;4.35;;;;;;;-139.48;100.00;61774.03;4997675;28;20520;-73
2021/06/13 08:29:21;;;;;;;9.60;3.95;;;;;;;-139.48;100.00;61774.03;4982067;28;20189;-73
2021/06/13 08:32:06;;;;;;;10.73;4.65;;;;;;;-139.48;100.00;61774.03;4996388;28;20108;-73
2021/06/13 08:34:51;;;;;;;7.75;4.47;;;;;;;-139.48;100.00;61774.03;4982196;28;20073;-73
2021/06/13 08:37:36;;;;;;;10.65;4.47;;;;;;;-139.48;100.00;61774.03;4981839;28;20045;-72
2021/06/13 08:40:21;;;;;;;8.40;4.50;;;;;;;-139.48;100.00;61774.03;4981843;28;20475;-73
2021/06/13 08:43:06;;;;;;;14.27;4.85;;;;;;;-139.48;100.00;61774.03;4981862;28;20104;-72
2021/06/13 08:45:54;;;;;;;6.18;4.05;;;;;;;-139.48;100.00;61774.03;4981649;28;20045;-72
2021/06/13 08:48:39;;;;;;;9.77;4.45;;;;;;;-139.48;100.00;61774.03;4968020;28;20100;-73
2021/06/13 08:51:23;;;;;;;6.88;3.60;;;;;;;-139.48;100.00;61774.03;4981270;28;20053;-73
2021/06/13 08:54:07;;;;;;;7.32;4.47;;;;;;;-139.48;100.00;61774.03;4981673;28;20498;-70
2021/06/13 08:56:50;;;;;;;5.25;4.00;;;;;;;-139.48;100.00;61774.03;4967960;28;20419;-73
2021/06/13 08:59:34;;;;;;;10.18;4.53;;;;;;;-139.48;100.00;61774.03;4981840;28;20412;-73
2021/06/13 09:02:19;;;;;;;10.35;4.40;;;;;;;-139.48;100.00;61774.03;4981252;28;20053;-73
2021/06/13 09:05:04;;;;;;;5.82;3.65;;;;;;;-139.48;100.00;61774.03;4968001;28;20136;-73
2021/06/13 09:07:53;;;;;;;6.82;3.70;;;;;;;-139.48;100.00;61774.03;4995501;28;20049;-72
2021/06/13 09:10:40;;;;;;;9.05;4.07;;;;;;;-139.48;100.00;61774.03;4967215;28;20049;-73
2021/06/13 09:13:26;;;;;;;11.02;3.67;;;;;;;-139.48;100.00;61774.03;4980870;28;20108;-73
2021/06/13 09:16:10;;;;;;;7.60;3.67;;;;;;;-139.48;100.00;61774.03;4981660;28;20057;-73
2021/06/13 09:18:54;;;;;;;7.50;3.63;;;;;;;-139.48;100.00;61774.03;4995741;28;20546;-73
2021/06/13 09:21:40;;;;;;;6.93;3.85;;;;;;;-139.48;100.00;61774.03;4966974;28;20096;-72
2021/06/13 09:24:27;;;;;;;7.47;3.25;;;;;;;-139.48;100.00;61774.03;4981097;28;20056;-73
2021/06/13 09:27:11;;;;;;;7.85;4.57;;;;;;;-139.48;100.00;61774.03;4967311;28;20057;-72
2021/06/13 09:29:55;;;;;;;10.57;5.72;;;;;;;-139.48;100.00;61774.03;4995622;28;20515;-72
2021/06/13 09:33:17;;;;;;;6.03;4.05;;;;;;;-139.48;100.00;61774.03;4980626;28;20080;-73
2021/06/13 09:36:04;;;;;;;8.60;4.20;;;;;;;-139.48;100.00;61774.03;4897490;29;20603;-73
2021/06/13 09:38:52;;;;;;;11.05;5.53;;;;;;;-139.48;100.00;61774.03;4995507;28;20045;-73
2021/06/13 09:41:42;;;;;;;5.82;3.53;;;;;;;-139.48;100.00;61774.03;4980277;28;20045;-73
2021/06/13 09:44:26;;;;;;;7.57;3.88;;;;;;;-139.48;100.00;61774.03;4966987;28;20514;-73
2021/06/13 09:47:10;;;;;;;6.35;4.18;;;;;;;-139.48;100.00;61774.03;4980249;28;20446;-73
2021/06/13 09:49:54;;;;;;;7.72;3.65;;;;;;;-139.48;100.00;61774.03;4995115;28;20056;-72
2021/06/13 09:52:38;;;;;;;4.50;3.22;;;;;;;-139.48;100.00;61774.03;4980191;28;20052;-72
2021/06/13 09:55:23;;;;;;;7.85;3.80;;;;;;;-139.48;100.00;61774.03;4994982;28;20080;-72
2021/06/13 09:58:08;;;;;;;8.88;3.63;;;;;;;-139.48;100.00;61774.03;4980457;28;20045;-71
2021/06/13 10:00:52;;;;;;;8.93;3.60;;;;;;;-139.48;100.00;61774.03;4994941;28;20049;-73
2021/06/13 10:03:37;;;;;;;5.07;3.28;;;;;;;-139.48;100.00;61774.03;4979947;28;20104;-73
2021/06/13 10:06:21;;;;;;;6.75;3.78;;;;;;;-139.48;100.00;61774.03;4980067;28;20050;-73
2021/06/13 10:09:07;;;;;;;6.53;2.90;;;;;;;-139.48;100.00;61774.03;4979685;28;20468;-73
2021/06/13 10:12:03;;;;;;;6.68;3.05;;;;;;;-139.48;100.00;61774.03;4966307;28;20133;-73
2021/06/13 10:14:49;;;;;;;7.35;4.22;;;;;;;-139.48;100.00;61774.03;4966257;28;20514;-73
2021/06/13 10:17:34;;;;;;;7.40;3.35;;;;;;;-139.48;100.00;61774.03;4994329;28;20046;-73
2021/06/13 10:20:25;;;;;;;10.13;3.20;;;;;;;-139.48;100.00;61774.03;4980032;28;20092;-72
2021/06/13 10:23:09;;;;;;;4.45;2.97;;;;;;;-139.48;100.00;61774.03;4994549;28;20422;-73
2021/06/13 10:25:54;;;;;;;5.25;2.88;;;;;;;-139.48;100.00;61774.03;4979765;28;20053;-73
2021/06/13 10:28:37;;;;;;;7.30;2.80;;;;;;;-139.48;100.00;61774.03;4994113;28;20049;-73
2021/06/13 10:31:22;;;;;;;4.85;2.58;;;;;;;-139.48;100.00;61774.03;4999889;22;20064;-70
2021/06/13 10:34:06;;;;;;;6.40;3.00;;;;;;;-139.48;100.00;61774.03;5073799;28;20060;-70
2021/06/13 10:36:51;;;;;;;3.30;2.33;;;;;;;-139.48;100.00;61774.03;5044534;28;20050;-70
2021/06/13 10:39:36;;;;;;;3.90;2.20;;;;;;;-139.48;100.00;61774.03;5058395;28;20043;-69
2021/06/13 10:42:21;;;;;;;8.30;2.60;;;;;;;-139.48;100.00;61774.03;5073368;28;20126;-70
2021/06/13 10:45:06;;;;;;;3.70;2.88;;;;;;;-139.48;100.00;61774.03;5058076;28;20047;-70
2021/06/13 10:48:05;;;;;;;6.05;2.63;;;;;;;-139.48;100.00;61774.03;5073406;28;20397;-70
2021/06/13 10:50:49;;;;;;;5.13;2.30;;;;;;;-139.48;100.00;61774.03;5057981;28;20059;-70
2021/06/13 10:53:34;;;;;;;4.88;2.65;;;;;;;-139.48;100.00;61774.03;5057969;28;20091;-69
2021/06/13 10:56:25;;;;;;;5.40;2.40;;;;;;;-139.48;100.00;61774.03;5058240;28;20539;-69
2021/06/13 10:59:18;;;;;;;9.40;2.60;;;;;;;-139.48;100.00;61774.03;5057230;28;20094;-68
2021/06/13 11:02:11;;;;;;;7.53;2.53;;;;;;;-139.48;100.00;61774.03;5043499;28;20048;-67
2021/06/13 11:04:56;;;;;;;4.15;2.35;;;;;;;-139.48;100.00;61774.03;5072654;28;20101;-69
2021/06/13 11:07:43;;;;;;;5.05;2.28;;;;;;;-139.48;100.00;61774.03;5072647;28;20459;-69
2021/06/13 11:10:29;;;;;;;15.20;3.67;;;;;;;-139.48;100.00;61774.03;5072393;28;20118;-69
2021/06/13 11:13:15;;;;;;;5.18;2.30;;;;;;;-139.48;100.00;61774.03;5056943;28;20076;-68
2021/06/13 11:16:11;;;;;;;4.82;2.10;;;;;;;-139.48;100.00;61774.03;5057304;28;20059;-69
2021/06/13 11:19:31;;;;;;;2.65;2.17;;;;;;;-139.48;100.00;61774.03;5057325;28;20098;-70
2021/06/13 11:22:18;;;;;;;6.00;2.35;;;;;;;-139.48;100.00;61774.03;5072293;28;20051;-69
2021/06/13 11:25:02;;;;;;;2.85;2.35;;;;;;;-139.48;100.00;61774.03;5072152;28;20527;-69
2021/06/13 11:28:27;;;;;;;4.35;2.30;;;;;;;-139.48;100.00;61774.03;5056965;28;20497;-69
2021/06/13 11:31:14;;;;;;;5.53;2.60;;;;;;;-139.48;100.00;61774.03;5061980;28;20051;-69
2021/06/13 11:34:00;;;;;;;5.28;2.50;;;;;;;-139.48;100.00;61774.03;5076199;28;20048;-69
2021/06/13 11:36:44;;;;;;;4.93;2.50;;;;;;;-139.48;100.00;61774.03;5076129;28;20083;-70
2021/06/13 11:39:29;;;;;;;3.58;2.08;;;;;;;-139.48;100.00;61774.03;5061125;28;20047;-68
2021/06/13 11:42:15;;;;;;;5.82;2.58;;;;;;;-139.48;100.00;61774.03;5076350;28;20075;-68
2021/06/13 11:44:59;;;;;;;3.60;1.90;;;;;;;-139.48;100.00;61774.03;5060724;28;20094;-69
2021/06/13 11:47:43;;;;;;;3.88;2.10;;;;;;;-139.48;100.00;61774.03;5046778;28;20094;-68
2021/06/13 11:50:37;;;;;;;4.30;2.08;;;;;;;-139.48;100.00;61774.03;5060646;28;20129;-70
2021/06/13 11:53:55;;;;;;;4.10;2.33;;;;;;;-139.48;100.00;61774.03;5046758;28;20051;-69
2021/06/13 11:56:41;;;;;;;3.80;2.10;;;;;;;-139.48;100.00;61774.03;5075985;28;20400;-69
2021/06/13 11:59:25;;;;;;;7.18;2.67;;;;;;;-139.48;100.00;61774.03;5060840;28;20097;-69
2021/06/13 12:02:11;;;;;;;3.83;2.47;;;;;;;-139.48;100.00;61774.03;5060545;28;20464;-69
2021/06/13 12:04:55;;;;;;;3.97;2.35;;;;;;;-139.48;100.00;61774.03;5076287;28;20144;-70
2021/06/13 12:07:40;;;;;;;4.57;1.88;;;;;;;-139.48;100.00;61774.03;5060499;28;20141;-70
2021/06/13 12:10:28;;;;;;;3.88;2.30;;;;;;;-139.48;100.00;61774.03;5075421;28;20462;-69
2021/06/13 12:13:14;;;;;;;6.90;2.35;;;;;;;-139.48;100.00;61774.03;5075357;28;20576;-70
2021/06/13 12:15:58;;;;;;;4.53;2.40;;;;;;;-139.48;100.00;61774.03;5046821;28;20413;-69
2021/06/13 12:18:57;;;;;;;6.25;2.70;;;;;;;-139.48;100.00;61774.03;5075442;28;20139;-70
2021/06/13 12:21:41;;;;;;;4.97;2.30;;;;;;;-139.48;100.00;61774.03;5060256;28;20050;-70
2021/06/13 12:27:23;;;;;;;2.45;2.00;;;;;;;-139.48;100.00;61774.03;5060327;28;20087;-69
2021/06/13 12:30:11;;;;;;;4.45;2.00;;;;;;;-139.48;100.00;61774.03;5075404;28;20516;-70
2021/06/13 12:33:03;;;;;;;2.45;1.90;;;;;;;-139.48;100.00;61774.03;5075002;28;20048;-69
2021/06/13 12:35:48;;;;;;;4.13;2.07;;;;;;;-139.48;100.00;61774.03;5075281;28;20051;-70
2021/06/13 12:38:36;;;;;;;6.35;2.00;;;;;;;-139.48;100.00;61774.03;5060158;28;20260;-69